EFKE

Kemi-Tornio Airport

Kemi / Tornio, Finland
METAR EFKE 160550Z AUTO 13004KT 040V170 CAVOK 12/08 Q1014
Observed Flight Rules
Aug-16 @ 05:50 UTC (26 minutes ago) Visual Flight Rules
Wind Visibility Clouds
130° at 4 knots 10,000+ meters
  • Clear skies
Temperatures Readings
Current 12°C / 54°F
Dewpoint 8°C / 46°F
Humidity 77%
Altimeter 29.94" Hg
Pressure 1014 hPa
Elevation 15
METAR EFKE 160550Z AUTO 13004KT 040V170 CAVOK 12/08 Q1014
Observed Flight Rules
Aug-16 @ 05:50 UTC
(26 minutes ago)
VFR
Wind Visibility
130° at 4 knots 10,000+ meters
Clouds
  • Clear skies
Temperature Dewpoint
12°C / 54°F 8°C / 46°F
Humidity Altimeter Pressure
77% 29.94" Hg 1014 hPa